Time;durP1;ratioP1;P1;durP2;ratioP2;P2;SDS_P1;SDS_P2;PMS_P1;PMS_P2;Temp;Humidity;BMP_temperature;BMP_pressure;BME280_temperature;BME280_humidity;BME280_pressure;Samples;Min_cycle;Max_cycle;Signal;HPM_P1;HPM_P2
2022/01/21 00:01:37;;;;;;;18.48;6.70;;;4.30;99.90;;;;;;5039936;28;20049;-87
2022/01/21 00:04:03;;;;;;;13.95;7.00;;;4.30;99.90;;;;;;5040387;28;20017;-87
2022/01/21 00:06:30;;;;;;;16.10;6.35;;;4.30;99.90;;;;;;5041536;28;20021;-86
2022/01/21 00:08:56;;;;;;;16.70;6.03;;;4.20;99.90;;;;;;5043013;28;20096;-88
2022/01/21 00:11:23;;;;;;;20.10;7.57;;;4.20;99.90;;;;;;5044587;28;20022;-87
2022/01/21 00:13:49;;;;;;;13.23;6.30;;;4.30;99.90;;;;;;5042433;28;20021;-86
2022/01/21 00:16:17;;;;;;;13.95;5.60;;;4.30;99.90;;;;;;5037740;28;20383;-87
2022/01/21 00:18:57;;;;;;;18.55;6.13;;;4.30;99.90;;;;;;5042687;28;20251;-87
2022/01/21 00:32:22;;;;;;;17.77;6.35;;;4.20;99.90;;;;;;5043557;28;20051;-89
2022/01/21 00:34:48;;;;;;;15.10;6.03;;;4.10;99.90;;;;;;5041750;28;20120;-87
2022/01/21 00:37:14;;;;;;;15.77;6.38;;;4.10;99.90;;;;;;5041854;28;20025;-88
2022/01/21 00:39:43;;;;;;;20.67;6.18;;;4.10;99.90;;;;;;5041791;28;20030;-89
2022/01/21 00:42:34;;;;;;;17.13;5.93;;;4.10;99.90;;;;;;5042952;28;20051;-88
2022/01/21 00:45:00;;;;;;;16.63;6.10;;;4.10;99.90;;;;;;5043047;28;20225;-87
2022/01/21 00:47:29;;;;;;;24.50;6.57;;;4.00;99.90;;;;;;5042385;28;20056;-87
2022/01/21 00:49:56;;;;;;;22.88;5.88;;;3.90;99.90;;;;;;5042862;28;20416;-87
2022/01/21 00:52:22;;;;;;;19.60;5.93;;;3.90;99.90;;;;;;5042449;28;20385;-89
2022/01/21 00:54:48;;;;;;;14.77;5.88;;;3.90;99.90;;;;;;5043096;28;20017;-87
2022/01/21 00:57:14;;;;;;;16.95;5.97;;;3.80;99.90;;;;;;5041706;28;20481;-87
2022/01/21 00:59:40;;;;;;;16.83;4.82;;;3.90;99.90;;;;;;5042653;28;20083;-87
2022/01/21 01:02:06;;;;;;;16.10;5.68;;;3.80;99.90;;;;;;5042776;28;20237;-87
2022/01/21 01:04:32;;;;;;;11.65;5.05;;;3.80;99.90;;;;;;5041958;28;20025;-87
2022/01/21 01:06:58;;;;;;;17.15;4.82;;;3.70;99.90;;;;;;5042605;28;20026;-86
2022/01/21 01:09:24;;;;;;;16.38;5.30;;;3.80;99.90;;;;;;5042785;28;20018;-87
2022/01/21 01:20:03;;;;;;;17.85;4.80;;;3.70;99.90;;;;;;5040485;28;20144;-87
2022/01/21 01:23:01;;;;;;;14.48;3.25;;;3.70;99.90;;;;;;5042671;28;20021;-86
2022/01/21 01:28:03;;;;;;;;;;;3.60;99.90;;;;;;5043704;28;20247;-88
2022/01/21 01:30:31;;;;;;;14.73;4.35;;;3.60;99.90;;;;;;5043355;28;20249;-87
2022/01/21 01:33:01;;;;;;;17.00;4.80;;;3.60;99.90;;;;;;5038508;28;20080;-89
2022/01/21 01:35:31;;;;;;;11.07;4.28;;;3.60;99.90;;;;;;5041917;28;20229;-87
2022/01/21 01:38:58;;;;;;;15.57;4.75;;;3.50;99.90;;;;;;5042809;28;20067;-87
2022/01/21 01:40:47;;;;;;;20.30;5.10;;;3.40;99.90;;;;;;5038733;28;20272;-86
2022/01/21 01:50:56;;;;;;;13.85;4.50;;;3.40;99.90;;;;;;5041793;28;20021;-89
2022/01/21 01:53:41;;;;;;;14.23;3.95;;;3.40;99.90;;;;;;5041040;28;20013;-88
2022/01/21 01:56:09;;;;;;;16.70;4.30;;;3.40;99.90;;;;;;5041472;28;20021;-87
2022/01/21 01:58:37;;;;;;;13.60;4.47;;;3.40;99.90;;;;;;5039892;28;20060;-87
2022/01/21 02:01:04;;;;;;;15.82;3.58;;;3.40;99.90;;;;;;5040949;28;20281;-87
2022/01/21 02:03:31;;;;;;;14.60;4.00;;;3.40;99.90;;;;;;5040462;28;20259;-87
2022/01/21 02:05:56;;;;;;;10.43;3.90;;;3.30;99.90;;;;;;5040167;28;20026;-87
2022/01/21 02:08:22;;;;;;;12.57;4.20;;;3.40;99.90;;;;;;5040503;28;20364;-87
2022/01/21 02:10:48;;;;;;;12.20;3.88;;;3.30;99.90;;;;;;5041509;28;20027;-87
2022/01/21 02:13:21;;;;;;;14.45;3.50;;;3.30;99.90;;;;;;5041128;28;20017;-86
2022/01/21 02:16:02;;;;;;;10.60;3.60;;;3.30;99.90;;;;;;5040794;28;20025;-87
2022/01/21 02:21:36;;;;;;;15.05;3.70;;;3.20;99.90;;;;;;5041724;28;20040;-87
2022/01/21 02:24:29;;;;;;;12.95;3.35;;;3.20;99.90;;;;;;5040497;28;20071;-87
2022/01/21 02:26:55;;;;;;;9.65;3.15;;;3.10;99.90;;;;;;5041210;28;20210;-86
2022/01/21 02:29:28;;;;;;;12.55;3.33;;;3.20;99.90;;;;;;5039063;28;20097;-86
2022/01/21 02:31:55;;;;;;;17.57;4.23;;;3.10;99.90;;;;;;5039149;28;20025;-86
2022/01/21 02:34:21;;;;;;;11.77;3.10;;;3.10;99.90;;;;;;5041941;28;20018;-87
2022/01/21 02:36:47;;;;;;;10.05;3.63;;;3.10;99.90;;;;;;5041410;28;20084;-86
2022/01/21 02:39:13;;;;;;;15.18;3.70;;;3.10;99.90;;;;;;5041857;28;20017;-86
2022/01/21 02:41:38;;;;;;;9.18;3.28;;;3.10;99.90;;;;;;5041861;28;20029;-86
2022/01/21 02:44:04;;;;;;;15.50;3.63;;;3.00;99.90;;;;;;5039885;28;20160;-86
2022/01/21 02:46:36;;;;;;;15.05;3.65;;;3.00;99.90;;;;;;5041782;28;20017;-86
2022/01/21 02:49:02;;;;;;;16.27;4.22;;;3.00;99.90;;;;;;5041401;28;20017;-86
2022/01/21 02:51:28;;;;;;;15.05;3.92;;;3.10;99.90;;;;;;5040024;28;20294;-87
2022/01/21 02:56:19;;;;;;;15.32;3.72;;;3.10;99.90;;;;;;5041384;28;20321;-86
2022/01/21 02:58:46;;;;;;;13.68;3.90;;;3.10;99.90;;;;;;5040914;28;20065;-86
2022/01/21 03:01:13;;;;;;;14.32;3.65;;;3.10;99.90;;;;;;5036822;28;20306;-86
2022/01/21 03:03:40;;;;;;;15.18;4.25;;;3.10;99.90;;;;;;5041622;28;20017;-86
2022/01/21 03:06:06;;;;;;;12.05;3.53;;;3.00;99.90;;;;;;5041313;28;20025;-86
2022/01/21 03:08:32;;;;;;;16.75;3.80;;;2.90;99.90;;;;;;5039333;28;20313;-86
2022/01/21 03:10:58;;;;;;;13.52;3.90;;;2.90;99.90;;;;;;5036846;28;20032;-86
2022/01/21 03:13:24;;;;;;;13.85;3.38;;;2.90;99.90;;;;;;5040558;28;20021;-86
2022/01/21 03:15:51;;;;;;;11.15;3.20;;;2.90;99.90;;;;;;5040698;28;20029;-86
2022/01/21 03:18:18;;;;;;;19.65;4.57;;;2.90;99.90;;;;;;5038091;28;20021;-87
2022/01/21 03:20:44;;;;;;;13.40;3.47;;;2.90;99.90;;;;;;5040788;28;20290;-86
2022/01/21 03:23:15;;;;;;;16.45;3.85;;;2.90;99.90;;;;;;5041027;28;20025;-86
2022/01/21 03:25:44;;;;;;;16.70;4.07;;;2.90;99.90;;;;;;5040132;28;20310;-89
2022/01/21 03:28:11;;;;;;;11.88;3.65;;;2.80;99.90;;;;;;5040772;28;20332;-86
2022/01/21 03:30:37;;;;;;;18.58;4.10;;;2.80;99.90;;;;;;5041404;28;20018;-86
2022/01/21 03:33:03;;;;;;;10.70;3.25;;;2.80;99.90;;;;;;5041085;28;20052;-87
2022/01/21 03:35:29;;;;;;;13.85;3.90;;;2.80;99.90;;;;;;5036075;28;20305;-87
2022/01/21 03:37:55;;;;;;;14.82;3.90;;;2.80;99.90;;;;;;5039180;28;20269;-86
2022/01/21 03:40:21;;;;;;;13.48;3.53;;;2.80;99.90;;;;;;5055554;28;20037;-87
2022/01/21 03:42:47;;;;;;;14.05;3.75;;;2.80;99.90;;;;;;5042120;28;20042;-86
2022/01/21 03:45:14;;;;;;;18.13;4.30;;;2.80;99.90;;;;;;5044411;28;20025;-86
2022/01/21 03:47:40;;;;;;;14.63;4.50;;;2.70;99.90;;;;;;5044563;28;20132;-86
2022/01/21 03:50:29;;;;;;;10.82;2.90;;;2.80;99.90;;;;;;5045320;28;20014;-86
2022/01/21 03:52:56;;;;;;;11.75;4.13;;;2.70;99.90;;;;;;5039767;28;20513;-86
2022/01/21 03:55:21;;;;;;;14.45;3.88;;;2.60;99.90;;;;;;5041139;28;20142;-86
2022/01/21 03:57:47;;;;;;;16.80;3.65;;;2.60;99.90;;;;;;5044101;28;20129;-86
2022/01/21 04:00:17;;;;;;;17.40;3.92;;;2.50;99.90;;;;;;5044744;28;20219;-86
2022/01/21 04:02:43;;;;;;;14.10;4.63;;;2.60;99.90;;;;;;5044241;28;20037;-87
2022/01/21 04:05:09;;;;;;;15.68;3.92;;;2.60;99.90;;;;;;5044655;28;20219;-86
2022/01/21 04:07:36;;;;;;;13.93;3.78;;;2.60;99.90;;;;;;5041694;28;20018;-86
2022/01/21 04:10:02;;;;;;;12.02;3.05;;;2.60;99.90;;;;;;5044495;28;20018;-86
2022/01/21 04:12:27;;;;;;;13.20;3.97;;;2.50;99.90;;;;;;5044280;28;20017;-86
2022/01/21 04:14:53;;;;;;;18.17;3.80;;;2.60;99.90;;;;;;5043970;28;20063;-86
2022/01/21 04:17:19;;;;;;;17.80;4.05;;;2.60;99.90;;;;;;5040256;28;20024;-86
2022/01/21 04:19:44;;;;;;;13.35;3.63;;;2.60;99.90;;;;;;5041628;28;20040;-86
2022/01/21 04:22:10;;;;;;;15.55;3.53;;;2.60;99.90;;;;;;5038663;28;20021;-86
2022/01/21 04:24:37;;;;;;;16.65;3.78;;;2.60;99.90;;;;;;5041029;28;20045;-86
2022/01/21 04:27:03;;;;;;;16.60;3.88;;;2.60;99.90;;;;;;5041821;28;20021;-86
2022/01/21 04:29:29;;;;;;;15.00;3.42;;;2.60;99.90;;;;;;5039868;28;20028;-86
2022/01/21 04:31:55;;;;;;;12.52;3.15;;;2.60;99.90;;;;;;5057717;28;20029;-89
2022/01/21 04:34:20;;;;;;;15.18;4.32;;;2.60;99.90;;;;;;5043813;28;20565;-86
2022/01/21 04:36:46;;;;;;;12.25;3.35;;;2.60;99.90;;;;;;5043263;28;20025;-87
2022/01/21 04:39:20;;;;;;;11.70;3.67;;;2.60;99.90;;;;;;5043334;28;20234;-86
2022/01/21 04:49:39;;;;;;;13.38;3.65;;;2.50;99.90;;;;;;5043786;28;20024;-86
2022/01/21 04:52:05;;;;;;;13.80;3.83;;;2.50;99.90;;;;;;5042850;28;20041;-86
2022/01/21 04:54:33;;;;;;;12.23;3.78;;;2.40;99.90;;;;;;5042460;28;20317;-86
2022/01/21 04:57:00;;;;;;;15.38;3.67;;;2.40;99.90;;;;;;5042775;28;20100;-86
2022/01/21 04:59:25;;;;;;;11.57;3.97;;;2.50;99.90;;;;;;5041699;28;20052;-87
2022/01/21 05:01:52;;;;;;;11.30;4.45;;;2.40;99.90;;;;;;5043042;28;20321;-86
2022/01/21 05:04:20;;;;;;;11.73;3.40;;;2.40;99.90;;;;;;5037254;28;20034;-86
2022/01/21 05:06:47;;;;;;;16.75;4.40;;;2.40;99.90;;;;;;5042840;28;20037;-86
2022/01/21 05:09:15;;;;;;;14.68;3.65;;;2.40;99.90;;;;;;5043247;28;20024;-86
2022/01/21 05:11:42;;;;;;;13.65;3.88;;;2.40;99.90;;;;;;5043914;28;20085;-86
2022/01/21 05:14:17;;;;;;;17.48;4.72;;;2.30;99.90;;;;;;5042180;28;20025;-86
2022/01/21 05:16:46;;;;;;;13.95;3.70;;;2.30;99.90;;;;;;5040070;28;20013;-86
2022/01/21 05:19:17;;;;;;;11.88;3.53;;;2.20;99.90;;;;;;5037945;28;20056;-87
2022/01/21 05:21:50;;;;;;;18.95;4.68;;;2.20;99.90;;;;;;5043439;28;20055;-88
2022/01/21 05:24:17;;;;;;;12.48;3.88;;;2.20;99.90;;;;;;5042545;28;20306;-86
2022/01/21 05:26:52;;;;;;;16.65;3.83;;;2.30;99.90;;;;;;5042654;28;20029;-86
2022/01/21 05:29:20;;;;;;;20.33;4.70;;;2.20;99.90;;;;;;5041872;28;20036;-86
2022/01/21 05:31:46;;;;;;;11.73;3.63;;;2.20;99.90;;;;;;5042927;28;20093;-86
2022/01/21 05:34:12;;;;;;;22.88;4.20;;;2.20;99.90;;;;;;5040959;28;20026;-89
2022/01/21 05:36:40;;;;;;;12.27;3.50;;;2.20;99.90;;;;;;5034325;28;20026;-86
2022/01/21 05:39:07;;;;;;;28.00;4.72;;;2.20;99.90;;;;;;5042199;28;20092;-86
2022/01/21 05:41:33;;;;;;;13.82;4.20;;;2.20;99.90;;;;;;5042657;28;20037;-86
2022/01/21 05:44:07;;;;;;;12.38;3.90;;;2.20;99.90;;;;;;5042878;28;20056;-86
2022/01/21 05:49:04;;;;;;;15.60;4.28;;;2.10;99.90;;;;;;5041547;28;20026;-86
2022/01/21 05:51:30;;;;;;;15.93;3.85;;;2.10;99.90;;;;;;5039432;28;20021;-90
2022/01/21 05:53:56;;;;;;;14.00;4.28;;;2.00;99.90;;;;;;5042333;28;20021;-86
2022/01/21 05:56:25;;;;;;;56.40;6.20;;;2.00;99.90;;;;;;5041989;28;20020;-86
2022/01/21 05:58:51;;;;;;;17.35;4.18;;;2.00;99.90;;;;;;5042386;28;20017;-87
2022/01/21 06:01:17;;;;;;;13.13;4.18;;;2.00;99.90;;;;;;5033477;28;20428;-86
2022/01/21 06:03:43;;;;;;;12.70;3.80;;;2.00;99.90;;;;;;5031161;28;20032;-85
2022/01/21 06:06:09;;;;;;;10.48;3.92;;;2.10;99.90;;;;;;5030415;28;20069;-86
2022/01/21 06:08:37;;;;;;;11.52;4.03;;;2.10;99.90;;;;;;5028696;28;20163;-87
2022/01/21 06:11:03;;;;;;;14.75;3.83;;;2.10;99.90;;;;;;5030214;28;20017;-87
2022/01/21 06:13:29;;;;;;;14.38;3.63;;;2.20;99.90;;;;;;5030170;28;20037;-87
2022/01/21 06:15:56;;;;;;;17.45;4.05;;;2.10;99.90;;;;;;5030630;28;20372;-86
2022/01/21 06:18:22;;;;;;;21.27;4.45;;;2.10;99.90;;;;;;5028811;28;20055;-86
2022/01/21 06:20:47;;;;;;;12.85;3.88;;;2.20;99.90;;;;;;5028731;28;20493;-87
2022/01/21 06:23:13;;;;;;;15.82;3.90;;;2.10;99.90;;;;;;5030272;28;20036;-86
2022/01/21 06:25:39;;;;;;;16.23;4.05;;;2.10;99.90;;;;;;5030694;28;20036;-86
2022/01/21 06:28:05;;;;;;;17.98;4.38;;;2.10;99.90;;;;;;5029437;28;20072;-86
2022/01/21 06:30:31;;;;;;;16.27;3.53;;;2.10;99.90;;;;;;5030634;28;20045;-87
2022/01/21 06:32:57;;;;;;;11.93;3.60;;;2.10;99.90;;;;;;5030647;28;20037;-88
2022/01/21 06:35:23;;;;;;;15.43;4.00;;;2.10;99.90;;;;;;5031179;28;20028;-86
2022/01/21 06:37:49;;;;;;;12.43;4.47;;;2.00;99.90;;;;;;5028891;28;20406;-86
2022/01/21 06:40:17;;;;;;;13.25;5.18;;;2.00;99.90;;;;;;5030545;28;20033;-86
2022/01/21 06:42:43;;;;;;;15.60;4.82;;;2.00;99.90;;;;;;5030318;28;20037;-88
2022/01/21 06:45:09;;;;;;;13.50;4.35;;;2.00;99.90;;;;;;5030443;28;20017;-88
2022/01/21 06:47:35;;;;;;;19.17;4.32;;;1.90;99.90;;;;;;5028984;28;20021;-86
2022/01/21 06:50:00;;;;;;;19.02;5.15;;;2.00;99.90;;;;;;5030219;28;20017;-86
2022/01/21 06:52:30;;;;;;;22.48;4.90;;;2.00;99.90;;;;;;5030069;28;20652;-87
2022/01/21 06:54:57;;;;;;;12.30;4.10;;;2.10;99.90;;;;;;5028867;28;20028;-86
2022/01/21 06:57:23;;;;;;;17.30;5.25;;;2.00;99.90;;;;;;5031059;28;20116;-89
2022/01/21 06:59:49;;;;;;;18.92;4.97;;;2.00;99.90;;;;;;5029363;28;20648;-91
2022/01/21 07:02:18;;;;;;;19.58;4.75;;;2.00;99.90;;;;;;5029284;28;20029;-90
2022/01/21 07:04:43;;;;;;;12.65;4.50;;;1.90;99.90;;;;;;5021026;28;20022;-91
2022/01/21 07:07:10;;;;;;;14.00;4.40;;;1.90;99.90;;;;;;5027597;28;20025;-91
2022/01/21 07:09:35;;;;;;;19.10;5.22;;;1.90;99.90;;;;;;5025660;28;20033;-91
2022/01/21 07:12:01;;;;;;;19.45;5.00;;;2.00;99.90;;;;;;5028453;28;20025;-90
2022/01/21 07:14:27;;;;;;;18.83;4.20;;;2.10;99.90;;;;;;5028254;28;20030;-90
2022/01/21 07:16:53;;;;;;;19.25;5.32;;;2.10;99.90;;;;;;5029179;28;20048;-91
2022/01/21 07:19:19;;;;;;;16.40;4.68;;;2.10;99.90;;;;;;5029416;28;20021;-91
2022/01/21 07:21:44;;;;;;;14.15;4.82;;;2.00;99.90;;;;;;5032610;28;20036;-91
2022/01/21 07:24:10;;;;;;;19.45;5.32;;;1.90;99.90;;;;;;5028149;28;20017;-91
2022/01/21 07:26:36;;;;;;;18.00;5.15;;;2.00;99.90;;;;;;5028460;28;20028;-90
2022/01/21 07:29:02;;;;;;;16.77;4.85;;;2.10;99.90;;;;;;5028371;28;20029;-91
2022/01/21 07:31:28;;;;;;;13.48;4.55;;;2.10;99.90;;;;;;5029918;28;20175;-90
2022/01/21 07:33:54;;;;;;;17.17;4.38;;;2.00;99.90;;;;;;5028242;28;20079;-91
2022/01/21 07:36:20;;;;;;;13.15;4.70;;;2.10;99.90;;;;;;5024618;28;20021;-91
2022/01/21 07:38:45;;;;;;;18.20;5.03;;;2.10;99.90;;;;;;5027672;28;20068;-88
2022/01/21 07:41:11;;;;;;;17.90;4.53;;;2.10;99.90;;;;;;5029155;28;20036;-88
2022/01/21 07:43:37;;;;;;;20.10;4.40;;;2.10;99.90;;;;;;5029916;28;20049;-88
2022/01/21 07:46:03;;;;;;;22.00;4.35;;;2.10;99.90;;;;;;5029114;28;20082;-88
2022/01/21 07:48:28;;;;;;;18.63;4.45;;;2.10;99.90;;;;;;5029712;28;20021;-88
2022/01/21 07:50:54;;;;;;;24.02;5.03;;;2.10;99.90;;;;;;5029207;28;20049;-87
2022/01/21 07:53:20;;;;;;;15.65;4.60;;;1.90;99.90;;;;;;5030250;28;20384;-86
2022/01/21 07:55:50;;;;;;;17.33;4.72;;;1.90;99.90;;;;;;5028107;28;20029;-89
2022/01/21 07:58:16;;;;;;;23.40;6.05;;;2.00;99.90;;;;;;5028964;28;20496;-89
2022/01/21 08:00:42;;;;;;;19.05;6.22;;;2.00;99.90;;;;;;5025941;28;20080;-89
2022/01/21 08:03:08;;;;;;;28.90;6.22;;;2.00;99.90;;;;;;5029877;28;20087;-89
2022/01/21 08:05:34;;;;;;;15.27;5.90;;;2.10;99.90;;;;;;5028217;28;20032;-89
2022/01/21 08:08:01;;;;;;;19.27;5.35;;;2.00;99.90;;;;;;5027614;28;20033;-92
2022/01/21 08:10:28;;;;;;;14.35;5.07;;;2.00;99.90;;;;;;5027838;28;20125;-89
2022/01/21 08:12:54;;;;;;;14.63;4.40;;;2.10;99.90;;;;;;5027769;28;20037;-92
2022/01/21 08:15:19;;;;;;;18.30;4.22;;;2.00;99.90;;;;;;5027900;28;20018;-90
2022/01/21 08:17:45;;;;;;;18.33;4.97;;;2.10;99.90;;;;;;5028131;28;20536;-92
2022/01/21 08:20:11;;;;;;;17.10;4.97;;;2.10;99.90;;;;;;5028055;28;20033;-90
2022/01/21 08:22:37;;;;;;;14.25;4.07;;;2.20;99.90;;;;;;5029154;28;20105;-88
2022/01/21 08:25:04;;;;;;;14.30;5.18;;;2.20;99.90;;;;;;5029405;28;20017;-89
2022/01/21 08:27:29;;;;;;;18.58;4.70;;;2.30;99.90;;;;;;5028843;28;20026;-89
2022/01/21 08:29:56;;;;;;;19.30;5.28;;;2.30;99.90;;;;;;5030968;28;20564;-90
2022/01/21 08:32:22;;;;;;;20.23;4.70;;;2.40;99.90;;;;;;5031418;28;20037;-90
2022/01/21 08:34:49;;;;;;;13.25;4.40;;;2.50;99.90;;;;;;5032727;28;20025;-91
2022/01/21 08:37:16;;;;;;;22.90;5.07;;;2.50;99.90;;;;;;5037416;28;20032;-79
2022/01/21 08:39:43;;;;;;;14.38;4.63;;;2.60;99.90;;;;;;5044133;28;20021;-79
2022/01/21 08:42:09;;;;;;;16.40;5.15;;;2.60;99.90;;;;;;5039547;28;20049;-91
2022/01/21 08:44:35;;;;;;;18.63;5.20;;;2.60;99.90;;;;;;5032605;28;20022;-91
2022/01/21 08:47:01;;;;;;;13.93;3.80;;;2.70;99.90;;;;;;5032716;28;20029;-81
2022/01/21 08:49:27;;;;;;;27.90;5.05;;;2.70;99.90;;;;;;5033566;28;20502;-93
2022/01/21 08:51:56;;;;;;;14.82;4.30;;;2.80;99.90;;;;;;5032106;28;20021;-92
2022/01/21 08:54:22;;;;;;;15.77;4.15;;;2.80;99.90;;;;;;5031701;28;20037;-94
2022/01/21 08:56:50;;;;;;;18.33;4.43;;;2.90;99.90;;;;;;5031071;28;20041;-92
2022/01/21 08:59:17;;;;;;;16.15;4.13;;;2.90;99.90;;;;;;5031498;28;20033;-90
2022/01/21 09:01:48;;;;;;;22.73;4.82;;;2.90;99.90;;;;;;5032314;28;20033;-92
2022/01/21 09:04:15;;;;;;;17.35;4.82;;;3.00;99.90;;;;;;5031490;28;20037;-92
2022/01/21 09:06:41;;;;;;;18.35;4.80;;;3.10;99.90;;;;;;5031697;28;20043;-91
2022/01/21 09:09:07;;;;;;;13.85;4.28;;;3.20;99.90;;;;;;5031779;28;20030;-92
2022/01/21 09:11:33;;;;;;;15.52;4.72;;;3.20;99.90;;;;;;5032253;28;20025;-92
2022/01/21 09:14:00;;;;;;;15.55;4.78;;;3.20;99.90;;;;;;5030847;28;20124;-92
2022/01/21 09:16:26;;;;;;;19.30;4.47;;;3.10;99.90;;;;;;5033816;28;20112;-92
2022/01/21 09:18:58;;;;;;;21.02;4.93;;;3.20;99.90;;;;;;5035136;28;20102;-78
2022/01/21 09:21:26;;;;;;;18.73;5.35;;;3.20;99.90;;;;;;5034100;28;20037;-92
2022/01/21 09:23:54;;;;;;;24.45;6.22;;;3.30;99.90;;;;;;5033574;28;20108;-92
2022/01/21 09:26:24;;;;;;;17.00;4.63;;;3.30;99.90;;;;;;5032750;28;20112;-92
2022/01/21 09:28:51;;;;;;;11.90;3.58;;;3.30;99.90;;;;;;5036157;28;20026;-93
2022/01/21 09:31:18;;;;;;;15.00;4.32;;;3.30;99.90;;;;;;5033939;28;20025;-92
2022/01/21 09:33:45;;;;;;;22.67;5.57;;;3.30;99.90;;;;;;5031496;28;20056;-92
2022/01/21 09:36:12;;;;;;;17.10;4.70;;;3.40;99.90;;;;;;5031982;28;20022;-93
2022/01/21 09:38:39;;;;;;;15.20;4.80;;;3.40;99.90;;;;;;5031810;28;20040;-91
2022/01/21 09:41:07;;;;;;;14.82;4.20;;;3.50;99.90;;;;;;5031718;28;20494;-93
2022/01/21 09:43:34;;;;;;;15.75;4.38;;;3.50;99.90;;;;;;5030217;28;20042;-93
2022/01/21 09:46:05;;;;;;;12.73;4.25;;;3.60;99.90;;;;;;5030498;28;20029;-94
2022/01/21 09:48:36;;;;;;;19.02;4.65;;;3.70;99.90;;;;;;5030688;28;20025;-92
2022/01/21 09:51:02;;;;;;;19.02;4.38;;;3.70;99.90;;;;;;5030750;28;20040;-91
2022/01/21 09:53:31;;;;;;;15.35;4.60;;;3.70;99.90;;;;;;5029973;28;20021;-92
2022/01/21 09:55:59;;;;;;;14.20;5.22;;;3.80;99.90;;;;;;5032502;28;20063;-93
2022/01/21 09:58:27;;;;;;;19.02;4.60;;;3.80;99.90;;;;;;5034259;28;20028;-92
2022/01/21 10:00:53;;;;;;;20.05;4.38;;;3.80;99.90;;;;;;5030975;28;20030;-93
2022/01/21 10:03:19;;;;;;;20.90;4.55;;;4.00;99.90;;;;;;5031189;28;20022;-91
2022/01/21 10:05:49;;;;;;;16.48;4.75;;;4.10;99.90;;;;;;5030509;28;20036;-91
2022/01/21 10:08:16;;;;;;;21.27;4.60;;;4.20;99.90;;;;;;5030483;28;20013;-91
2022/01/21 10:10:43;;;;;;;14.48;4.50;;;4.30;99.90;;;;;;5032348;28;20032;-91
2022/01/21 10:13:14;;;;;;;16.77;4.95;;;4.40;99.90;;;;;;5032664;28;20025;-93
2022/01/21 10:15:39;;;;;;;15.88;4.90;;;4.40;99.90;;;;;;5031092;28;20049;-93
2022/01/21 10:18:14;;;;;;;18.75;5.03;;;4.40;99.90;;;;;;5030431;28;20049;-94
2022/01/21 10:21:11;;;;;;;23.55;5.78;;;4.50;99.90;;;;;;5031117;28;20037;-93
2022/01/21 10:23:41;;;;;;;22.40;5.93;;;4.50;99.90;;;;;;5026490;28;20052;-92
2022/01/21 10:26:09;;;;;;;21.83;5.85;;;4.70;99.90;;;;;;5030946;28;20057;-95
2022/01/21 10:28:37;;;;;;;17.27;5.28;;;4.80;99.90;;;;;;5033477;28;20060;-94
2022/01/21 10:31:10;;;;;;;19.85;5.90;;;4.80;99.90;;;;;;5036276;28;20029;-81
2022/01/21 10:33:46;;;;;;;21.50;6.15;;;4.90;99.90;;;;;;5033998;28;20022;-95
2022/01/21 10:36:28;;;;;;;21.45;4.40;;;5.00;99.90;;;;;;5034599;28;20029;-91
2022/01/21 10:39:27;;;;;;;25.75;5.65;;;5.00;99.90;;;;;;5034360;28;20068;-93
2022/01/21 10:41:55;;;;;;;22.63;5.85;;;5.10;99.90;;;;;;5031810;28;20037;-91
2022/01/21 10:44:21;;;;;;;21.80;4.80;;;5.20;99.90;;;;;;5035087;28;20351;-91
2022/01/21 10:47:11;;;;;;;17.33;5.72;;;5.30;99.90;;;;;;5030567;28;20029;-91
2022/01/21 10:49:39;;;;;;;16.92;5.10;;;5.30;99.90;;;;;;5030374;28;20052;-91
2022/01/21 10:52:09;;;;;;;23.13;5.00;;;5.40;99.90;;;;;;5037692;28;20029;-91
2022/01/21 10:54:42;;;;;;;22.83;4.68;;;5.40;99.90;;;;;;5041272;28;20028;-91
2022/01/21 10:57:10;;;;;;;23.48;4.88;;;5.60;99.90;;;;;;5030486;28;20675;-93
2022/01/21 11:00:01;;;;;;;14.40;4.38;;;5.70;99.90;;;;;;5033276;28;20021;-91
2022/01/21 11:02:34;;;;;;;15.18;3.72;;;5.80;99.90;;;;;;5029518;28;20375;-93
2022/01/21 11:05:07;;;;;;;15.75;4.18;;;5.80;99.90;;;;;;5033468;28;20025;-91
2022/01/21 11:08:11;;;;;;;17.40;5.43;;;5.90;99.90;;;;;;5030454;28;20022;-91
2022/01/21 11:10:46;;;;;;;17.05;4.47;;;5.90;99.90;;;;;;5038737;28;20025;-91
2022/01/21 11:13:11;;;;;;;;;;;6.10;99.90;;;;;;5037572;28;20048;-91
2022/01/21 11:15:42;;;;;;;15.05;3.47;;;6.20;99.90;;;;;;5038650;28;19912;-91
2022/01/21 11:18:13;;;;;;;13.85;4.07;;;6.20;99.90;;;;;;5039339;28;20052;-94
2022/01/21 11:20:41;;;;;;;21.15;3.75;;;6.30;99.90;;;;;;5038494;28;20315;-92
2022/01/21 11:23:09;;;;;;;13.38;4.10;;;6.30;99.90;;;;;;5038528;28;20029;-93
2022/01/21 11:25:56;;;;;;;15.35;4.18;;;6.40;99.90;;;;;;5038952;28;20029;-94
2022/01/21 11:28:23;;;;;;;15.52;4.18;;;6.40;99.90;;;;;;5038853;28;20063;-93
2022/01/21 11:30:50;;;;;;;27.33;4.90;;;6.40;99.90;;;;;;5039367;28;20025;-93
2022/01/21 11:33:16;;;;;;;13.13;3.40;;;6.40;99.90;;;;;;5039508;28;20025;-93
2022/01/21 11:35:42;;;;;;;18.15;4.40;;;6.40;99.90;;;;;;5042973;28;20024;-93
2022/01/21 11:38:11;;;;;;;18.23;4.20;;;6.40;99.90;;;;;;5040612;28;20026;-93
2022/01/21 11:40:40;;;;;;;16.40;3.65;;;6.50;99.90;;;;;;5038904;28;20045;-92
2022/01/21 11:43:11;;;;;;;22.75;6.25;;;6.50;99.90;;;;;;5051395;28;20057;-94
2022/01/21 11:50:41;;;;;;;21.48;5.30;;;6.80;99.90;;;;;;5041371;28;20014;-92
2022/01/21 11:53:12;;;;;;;22.13;5.35;;;6.80;99.90;;;;;;5038164;28;20250;-94
2022/01/21 11:55:45;;;;;;;20.17;4.68;;;6.80;99.90;;;;;;5038068;28;20241;-80
2022/01/21 11:58:15;;;;;;;17.80;4.13;;;6.80;99.90;;;;;;5039393;28;20213;-80
2022/01/21 12:00:42;;;;;;;20.65;4.53;;;6.90;99.90;;;;;;5040314;28;20329;-80
2022/01/21 12:03:09;;;;;;;14.30;4.18;;;7.00;99.90;;;;;;5040085;28;20037;-92
2022/01/21 12:05:38;;;;;;;23.98;5.95;;;7.10;99.90;;;;;;5042490;28;20033;-91
2022/01/21 12:08:05;;;;;;;12.80;3.88;;;7.10;99.90;;;;;;5040816;28;20470;-92
2022/01/21 12:10:36;;;;;;;16.55;4.13;;;7.20;99.90;;;;;;5035882;28;20018;-92
2022/01/21 12:13:09;;;;;;;18.27;3.38;;;7.30;99.90;;;;;;5033818;28;20516;-92
2022/01/21 12:16:21;;;;;;;16.08;4.35;;;7.30;99.90;;;;;;5037968;28;20865;-92
2022/01/21 12:18:54;;;;;;;10.88;2.58;;;7.30;99.90;;;;;;5036765;28;20058;-90
2022/01/21 12:21:31;;;;;;;17.23;3.72;;;7.30;99.90;;;;;;5040815;28;20168;-93
2022/01/21 12:23:59;;;;;;;16.50;4.30;;;7.30;99.90;;;;;;5041597;28;20473;-92
2022/01/21 12:26:26;;;;;;;13.88;3.30;;;7.30;99.90;;;;;;5037996;28;20099;-94
2022/01/21 12:28:58;;;;;;;15.38;3.50;;;7.40;99.90;;;;;;5038012;28;20061;-92
2022/01/21 12:31:51;;;;;;;15.30;3.28;;;7.40;99.90;;;;;;5036826;28;20030;-91
2022/01/21 12:34:17;;;;;;;12.30;2.95;;;7.40;99.90;;;;;;5041665;28;20314;-90
2022/01/21 12:36:51;;;;;;;21.15;3.63;;;7.50;99.90;;;;;;5043601;28;20021;-90
2022/01/21 12:39:43;;;;;;;12.25;2.60;;;7.60;99.90;;;;;;5042302;28;20026;-91
2022/01/21 12:42:21;;;;;;;15.80;3.80;;;7.60;99.90;;;;;;5038841;28;20070;-91
2022/01/21 12:44:47;;;;;;;9.27;3.25;;;7.60;99.90;;;;;;5033367;28;20025;-90
2022/01/21 12:47:43;;;;;;;12.88;2.88;;;7.60;99.90;;;;;;5039842;28;20037;-90
2022/01/21 12:50:10;;;;;;;17.40;3.63;;;7.70;99.90;;;;;;5041663;28;20018;-90
2022/01/21 12:52:52;;;;;;;11.85;2.30;;;7.70;99.90;;;;;;5038914;28;20083;-91
2022/01/21 12:58:20;;;;;;;10.57;2.45;;;7.80;99.90;;;;;;5033158;28;20072;-91
2022/01/21 13:00:46;;;;;;;10.23;2.63;;;7.90;99.90;;;;;;5032523;28;20041;-91
2022/01/21 13:03:22;;;;;;;11.52;2.33;;;7.90;99.90;;;;;;5030786;28;20061;-91
2022/01/21 13:06:37;;;;;;;10.90;2.55;;;7.80;99.90;;;;;;5032541;28;20029;-91
2022/01/21 13:09:10;;;;;;;14.32;2.65;;;7.90;99.90;;;;;;5029520;28;20033;-93
2022/01/21 13:11:42;;;;;;;13.15;2.10;;;8.00;99.90;;;;;;5032605;28;20030;-93
2022/01/21 13:17:05;;;;;;;8.23;1.98;;;7.80;99.90;;;;;;5032848;28;20032;-93
2022/01/21 13:19:41;;;;;;;8.90;2.28;;;7.80;99.90;;;;;;5032088;28;20030;-91
2022/01/21 13:22:27;;;;;;;14.05;2.97;;;7.90;99.90;;;;;;5032022;28;20057;-91
2022/01/21 13:25:04;;;;;;;11.68;2.22;;;8.00;99.90;;;;;;5030886;28;20026;-90
2022/01/21 13:27:32;;;;;;;11.60;2.47;;;8.00;99.90;;;;;;5030462;28;20022;-90
2022/01/21 13:30:05;;;;;;;10.60;2.47;;;8.10;99.90;;;;;;5032251;28;20529;-93
2022/01/21 13:32:30;;;;;;;10.85;1.95;;;8.20;99.90;;;;;;5030564;28;20524;-90
2022/01/21 13:35:13;;;;;;;12.10;2.30;;;8.20;99.90;;;;;;5031831;28;20029;-91
2022/01/21 13:37:41;;;;;;;11.15;2.25;;;8.30;99.90;;;;;;5030739;28;20578;-92
2022/01/21 13:40:09;;;;;;;9.55;2.00;;;8.30;99.90;;;;;;5032760;28;20197;-91
2022/01/21 13:42:36;;;;;;;11.93;2.60;;;8.20;99.90;;;;;;5029954;28;20418;-93
2022/01/21 13:45:08;;;;;;;10.88;1.98;;;8.20;99.90;;;;;;5030395;28;20482;-94
2022/01/21 13:47:39;;;;;;;13.65;2.30;;;8.20;99.90;;;;;;5030347;28;20302;-91
2022/01/21 13:50:22;;;;;;;10.13;2.58;;;8.20;99.90;;;;;;5030009;28;20115;-92
2022/01/21 13:52:52;;;;;;;12.52;2.60;;;7.90;99.90;;;;;;5030761;28;20052;-92
2022/01/21 13:55:46;;;;;;;11.73;2.35;;;7.90;99.90;;;;;;5030298;28;20032;-93